Terminal Aerodrome Forecast
Issued by NWS

Home | Current Version | Previous Version | Text Only | Print | Product List | Glossary On
Versions: 1 2 3 4 5 6 7 8 9 10 11 12 13
000
FTUS46 KLOX 031100
TAFPMD
TAF
KPMD 031138Z 0312/0412 23008KT P6SM SKC
     FM031900 23018G28KT P6SM SKC
     FM032100 24020G30KT P6SM SKC
     FM040300 23015G22KT P6SM SKC
     FM040600 21012KT P6SM SKC=

USA.gov is the U.S. government's official web portal to all federal, state and local government web resources and services.